sensor_id;sensor_type;location;lat;lon;timestamp;P1;durP1;ratioP1;P2;durP2;ratioP2
19329;SDS011;9799;48.214;16.388;2023-11-18T00:02:21;4.73;;;2.40;;
19329;SDS011;9799;48.214;16.388;2023-11-18T00:05:43;2.43;;;2.20;;
19329;SDS011;9799;48.214;16.388;2023-11-18T00:09:04;2.77;;;2.30;;
19329;SDS011;9799;48.214;16.388;2023-11-18T00:12:27;2.63;;;2.43;;
19329;SDS011;9799;48.214;16.388;2023-11-18T00:15:48;3.03;;;2.30;;
19329;SDS011;9799;48.214;16.388;2023-11-18T00:19:09;2.53;;;2.33;;
19329;SDS011;9799;48.214;16.388;2023-11-18T00:22:30;4.50;;;2.70;;
19329;SDS011;9799;48.214;16.388;2023-11-18T00:25:52;2.60;;;2.40;;
19329;SDS011;9799;48.214;16.388;2023-11-18T00:29:14;2.10;;;1.90;;
19329;SDS011;9799;48.214;16.388;2023-11-18T00:32:35;4.83;;;3.03;;
19329;SDS011;9799;48.214;16.388;2023-11-18T00:35:56;5.73;;;2.20;;
19329;SDS011;9799;48.214;16.388;2023-11-18T00:39:19;4.40;;;2.30;;
19329;SDS011;9799;48.214;16.388;2023-11-18T00:42:40;2.80;;;2.50;;
19329;SDS011;9799;48.214;16.388;2023-11-18T00:46:03;3.50;;;2.60;;
19329;SDS011;9799;48.214;16.388;2023-11-18T00:49:24;3.17;;;2.40;;
19329;SDS011;9799;48.214;16.388;2023-11-18T00:52:46;3.83;;;2.50;;
19329;SDS011;9799;48.214;16.388;2023-11-18T00:56:13;3.00;;;2.30;;
19329;SDS011;9799;48.214;16.388;2023-11-18T00:59:41;2.93;;;2.73;;
19329;SDS011;9799;48.214;16.388;2023-11-18T01:03:03;4.33;;;2.23;;
19329;SDS011;9799;48.214;16.388;2023-11-18T01:06:25;2.27;;;2.00;;
19329;SDS011;9799;48.214;16.388;2023-11-18T01:09:46;2.53;;;2.17;;
19329;SDS011;9799;48.214;16.388;2023-11-18T01:13:08;3.53;;;2.30;;
19329;SDS011;9799;48.214;16.388;2023-11-18T01:16:29;6.13;;;2.73;;
19329;SDS011;9799;48.214;16.388;2023-11-18T01:19:52;4.20;;;2.37;;
19329;SDS011;9799;48.214;16.388;2023-11-18T01:23:13;2.80;;;2.37;;
19329;SDS011;9799;48.214;16.388;2023-11-18T01:26:34;3.07;;;2.47;;
19329;SDS011;9799;48.214;16.388;2023-11-18T01:29:56;2.87;;;2.20;;
19329;SDS011;9799;48.214;16.388;2023-11-18T01:33:17;6.33;;;2.60;;
19329;SDS011;9799;48.214;16.388;2023-11-18T01:36:39;4.60;;;2.67;;
19329;SDS011;9799;48.214;16.388;2023-11-18T01:40:03;3.60;;;2.67;;
19329;SDS011;9799;48.214;16.388;2023-11-18T01:43:26;6.50;;;2.97;;
19329;SDS011;9799;48.214;16.388;2023-11-18T01:46:47;2.63;;;2.40;;
19329;SDS011;9799;48.214;16.388;2023-11-18T01:50:09;3.20;;;2.37;;
19329;SDS011;9799;48.214;16.388;2023-11-18T01:53:35;3.20;;;2.60;;
19329;SDS011;9799;48.214;16.388;2023-11-18T01:56:57;3.97;;;2.40;;
19329;SDS011;9799;48.214;16.388;2023-11-18T02:00:25;2.40;;;2.20;;
19329;SDS011;9799;48.214;16.388;2023-11-18T02:03:47;3.73;;;2.60;;
19329;SDS011;9799;48.214;16.388;2023-11-18T02:07:09;2.50;;;2.30;;
19329;SDS011;9799;48.214;16.388;2023-11-18T02:10:35;4.17;;;2.37;;
19329;SDS011;9799;48.214;16.388;2023-11-18T02:14:07;2.60;;;2.40;;
19329;SDS011;9799;48.214;16.388;2023-11-18T02:17:32;2.97;;;2.43;;
19329;SDS011;9799;48.214;16.388;2023-11-18T02:20:55;3.47;;;2.90;;
19329;SDS011;9799;48.214;16.388;2023-11-18T02:24:27;2.70;;;2.30;;
19329;SDS011;9799;48.214;16.388;2023-11-18T02:27:51;3.43;;;2.50;;
19329;SDS011;9799;48.214;16.388;2023-11-18T02:31:14;2.93;;;2.30;;
19329;SDS011;9799;48.214;16.388;2023-11-18T02:34:43;3.77;;;2.80;;
19329;SDS011;9799;48.214;16.388;2023-11-18T02:38:10;2.87;;;2.43;;
19329;SDS011;9799;48.214;16.388;2023-11-18T02:41:33;6.13;;;2.43;;
19329;SDS011;9799;48.214;16.388;2023-11-18T02:44:57;2.53;;;2.23;;
19329;SDS011;9799;48.214;16.388;2023-11-18T02:48:19;2.37;;;2.17;;
19329;SDS011;9799;48.214;16.388;2023-11-18T02:51:40;2.90;;;2.60;;
19329;SDS011;9799;48.214;16.388;2023-11-18T02:55:03;3.57;;;2.67;;
19329;SDS011;9799;48.214;16.388;2023-11-18T02:58:25;2.77;;;2.47;;
19329;SDS011;9799;48.214;16.388;2023-11-18T03:01:48;2.63;;;2.43;;
19329;SDS011;9799;48.214;16.388;2023-11-18T03:05:14;3.10;;;2.40;;
19329;SDS011;9799;48.214;16.388;2023-11-18T03:08:35;3.33;;;2.70;;
19329;SDS011;9799;48.214;16.388;2023-11-18T03:11:56;2.67;;;2.47;;
19329;SDS011;9799;48.214;16.388;2023-11-18T03:15:19;2.87;;;2.53;;
19329;SDS011;9799;48.214;16.388;2023-11-18T03:18:42;5.27;;;2.57;;
19329;SDS011;9799;48.214;16.388;2023-11-18T03:22:04;3.57;;;2.33;;
19329;SDS011;9799;48.214;16.388;2023-11-18T03:25:25;2.60;;;2.07;;
19329;SDS011;9799;48.214;16.388;2023-11-18T03:28:47;2.37;;;2.17;;
19329;SDS011;9799;48.214;16.388;2023-11-18T03:32:09;3.17;;;2.27;;
19329;SDS011;9799;48.214;16.388;2023-11-18T03:35:33;5.90;;;2.60;;
19329;SDS011;9799;48.214;16.388;2023-11-18T03:38:54;2.60;;;2.40;;
19329;SDS011;9799;48.214;16.388;2023-11-18T03:42:16;1.80;;;1.70;;
19329;SDS011;9799;48.214;16.388;2023-11-18T03:45:38;2.00;;;1.87;;
19329;SDS011;9799;48.214;16.388;2023-11-18T03:48:59;2.47;;;1.93;;
19329;SDS011;9799;48.214;16.388;2023-11-18T03:52:21;1.97;;;1.60;;
19329;SDS011;9799;48.214;16.388;2023-11-18T03:55:43;3.23;;;2.37;;
19329;SDS011;9799;48.214;16.388;2023-11-18T03:59:04;2.33;;;2.13;;
19329;SDS011;9799;48.214;16.388;2023-11-18T04:02:25;2.50;;;2.30;;
19329;SDS011;9799;48.214;16.388;2023-11-18T04:05:48;2.27;;;2.00;;
19329;SDS011;9799;48.214;16.388;2023-11-18T04:09:10;3.27;;;2.20;;
19329;SDS011;9799;48.214;16.388;2023-11-18T04:12:32;2.00;;;1.90;;
19329;SDS011;9799;48.214;16.388;2023-11-18T04:15:53;2.07;;;1.90;;
19329;SDS011;9799;48.214;16.388;2023-11-18T04:19:14;3.17;;;2.20;;
19329;SDS011;9799;48.214;16.388;2023-11-18T04:22:37;2.30;;;2.10;;
19329;SDS011;9799;48.214;16.388;2023-11-18T04:26:00;4.80;;;2.13;;
19329;SDS011;9799;48.214;16.388;2023-11-18T04:29:22;2.37;;;1.90;;
19329;SDS011;9799;48.214;16.388;2023-11-18T04:32:43;1.97;;;1.83;;
19329;SDS011;9799;48.214;16.388;2023-11-18T04:36:05;2.00;;;1.90;;
19329;SDS011;9799;48.214;16.388;2023-11-18T04:39:31;1.83;;;1.73;;
19329;SDS011;9799;48.214;16.388;2023-11-18T04:42:54;2.90;;;2.00;;
19329;SDS011;9799;48.214;16.388;2023-11-18T04:46:15;1.70;;;1.60;;
19329;SDS011;9799;48.214;16.388;2023-11-18T04:49:36;1.83;;;1.53;;
19329;SDS011;9799;48.214;16.388;2023-11-18T04:52:57;1.97;;;1.87;;
19329;SDS011;9799;48.214;16.388;2023-11-18T04:56:18;2.70;;;2.47;;
19329;SDS011;9799;48.214;16.388;2023-11-18T04:59:41;2.10;;;2.00;;
19329;SDS011;9799;48.214;16.388;2023-11-18T05:03:02;2.87;;;2.07;;
19329;SDS011;9799;48.214;16.388;2023-11-18T05:06:24;2.33;;;2.10;;
19329;SDS011;9799;48.214;16.388;2023-11-18T05:09:45;2.60;;;2.37;;
19329;SDS011;9799;48.214;16.388;2023-11-18T05:13:07;2.67;;;2.43;;
19329;SDS011;9799;48.214;16.388;2023-11-18T05:16:29;3.63;;;2.50;;
19329;SDS011;9799;48.214;16.388;2023-11-18T05:19:50;3.73;;;3.33;;
19329;SDS011;9799;48.214;16.388;2023-11-18T05:23:12;3.57;;;3.27;;
19329;SDS011;9799;48.214;16.388;2023-11-18T05:26:33;5.50;;;3.20;;
19329;SDS011;9799;48.214;16.388;2023-11-18T05:29:54;3.40;;;3.10;;
19329;SDS011;9799;48.214;16.388;2023-11-18T05:33:19;5.53;;;3.40;;
19329;SDS011;9799;48.214;16.388;2023-11-18T05:36:41;3.80;;;3.50;;
19329;SDS011;9799;48.214;16.388;2023-11-18T05:40:02;3.00;;;2.80;;
19329;SDS011;9799;48.214;16.388;2023-11-18T05:43:28;3.87;;;3.37;;
19329;SDS011;9799;48.214;16.388;2023-11-18T05:46:56;3.37;;;3.07;;
19329;SDS011;9799;48.214;16.388;2023-11-18T05:50:18;4.13;;;2.70;;
19329;SDS011;9799;48.214;16.388;2023-11-18T05:53:39;2.50;;;2.30;;
19329;SDS011;9799;48.214;16.388;2023-11-18T05:57:03;2.57;;;2.37;;
19329;SDS011;9799;48.214;16.388;2023-11-18T06:00:25;3.87;;;2.87;;
19329;SDS011;9799;48.214;16.388;2023-11-18T06:03:50;2.80;;;2.57;;
19329;SDS011;9799;48.214;16.388;2023-11-18T06:07:12;2.63;;;2.43;;
19329;SDS011;9799;48.214;16.388;2023-11-18T06:10:34;2.47;;;2.27;;
19329;SDS011;9799;48.214;16.388;2023-11-18T06:13:55;5.27;;;2.67;;
19329;SDS011;9799;48.214;16.388;2023-11-18T06:17:16;2.70;;;2.50;;
19329;SDS011;9799;48.214;16.388;2023-11-18T06:20:38;2.40;;;2.20;;
19329;SDS011;9799;48.214;16.388;2023-11-18T06:24:01;7.00;;;2.40;;
19329;SDS011;9799;48.214;16.388;2023-11-18T06:27:23;2.93;;;2.73;;
19329;SDS011;9799;48.214;16.388;2023-11-18T06:30:44;4.27;;;3.50;;
19329;SDS011;9799;48.214;16.388;2023-11-18T06:34:05;4.43;;;3.40;;
19329;SDS011;9799;48.214;16.388;2023-11-18T06:37:31;5.93;;;3.23;;
19329;SDS011;9799;48.214;16.388;2023-11-18T06:40:54;3.83;;;3.17;;
19329;SDS011;9799;48.214;16.388;2023-11-18T06:44:18;4.43;;;3.00;;
19329;SDS011;9799;48.214;16.388;2023-11-18T06:47:43;3.53;;;2.87;;
19329;SDS011;9799;48.214;16.388;2023-11-18T06:51:05;8.37;;;3.30;;
19329;SDS011;9799;48.214;16.388;2023-11-18T06:54:27;4.63;;;3.40;;
19329;SDS011;9799;48.214;16.388;2023-11-18T06:57:50;3.03;;;2.73;;
19329;SDS011;9799;48.214;16.388;2023-11-18T07:01:12;3.70;;;3.37;;
19329;SDS011;9799;48.214;16.388;2023-11-18T07:04:34;5.33;;;2.90;;
19329;SDS011;9799;48.214;16.388;2023-11-18T07:07:57;3.20;;;2.90;;
19329;SDS011;9799;48.214;16.388;2023-11-18T07:11:20;4.30;;;3.43;;
19329;SDS011;9799;48.214;16.388;2023-11-18T07:14:43;3.83;;;3.03;;
19329;SDS011;9799;48.214;16.388;2023-11-18T07:18:04;3.80;;;3.27;;
19329;SDS011;9799;48.214;16.388;2023-11-18T07:21:25;3.33;;;2.83;;
19329;SDS011;9799;48.214;16.388;2023-11-18T07:24:46;5.27;;;3.47;;
19329;SDS011;9799;48.214;16.388;2023-11-18T07:28:07;3.33;;;2.90;;
19329;SDS011;9799;48.214;16.388;2023-11-18T07:31:30;3.17;;;2.87;;
19329;SDS011;9799;48.214;16.388;2023-11-18T07:34:53;4.23;;;3.23;;
19329;SDS011;9799;48.214;16.388;2023-11-18T07:38:15;3.73;;;3.43;;
19329;SDS011;9799;48.214;16.388;2023-11-18T07:41:39;4.67;;;3.70;;
19329;SDS011;9799;48.214;16.388;2023-11-18T07:45:00;5.63;;;3.33;;
19329;SDS011;9799;48.214;16.388;2023-11-18T07:48:24;3.83;;;3.43;;
19329;SDS011;9799;48.214;16.388;2023-11-18T07:51:47;3.73;;;3.13;;
19329;SDS011;9799;48.214;16.388;2023-11-18T07:55:08;7.23;;;4.60;;
19329;SDS011;9799;48.214;16.388;2023-11-18T07:58:30;5.27;;;3.00;;
19329;SDS011;9799;48.214;16.388;2023-11-18T08:01:51;3.30;;;3.00;;
19329;SDS011;9799;48.214;16.388;2023-11-18T08:05:15;5.93;;;3.60;;
19329;SDS011;9799;48.214;16.388;2023-11-18T08:08:38;5.27;;;3.23;;
19329;SDS011;9799;48.214;16.388;2023-11-18T08:12:01;3.57;;;2.77;;
19329;SDS011;9799;48.214;16.388;2023-11-18T08:15:22;4.60;;;3.00;;
19329;SDS011;9799;48.214;16.388;2023-11-18T08:18:46;3.80;;;3.47;;
19329;SDS011;9799;48.214;16.388;2023-11-18T08:22:08;4.47;;;3.03;;
19329;SDS011;9799;48.214;16.388;2023-11-18T08:25:30;3.60;;;2.87;;
19329;SDS011;9799;48.214;16.388;2023-11-18T08:28:53;3.90;;;3.47;;
19329;SDS011;9799;48.214;16.388;2023-11-18T08:32:14;4.03;;;3.17;;
19329;SDS011;9799;48.214;16.388;2023-11-18T08:35:36;4.23;;;3.80;;
19329;SDS011;9799;48.214;16.388;2023-11-18T08:39:01;3.53;;;3.13;;
19329;SDS011;9799;48.214;16.388;2023-11-18T08:42:22;4.80;;;3.37;;
19329;SDS011;9799;48.214;16.388;2023-11-18T08:45:44;3.93;;;3.53;;
19329;SDS011;9799;48.214;16.388;2023-11-18T08:49:05;4.60;;;3.93;;
19329;SDS011;9799;48.214;16.388;2023-11-18T08:52:30;5.63;;;3.33;;
19329;SDS011;9799;48.214;16.388;2023-11-18T08:55:52;3.87;;;3.47;;
19329;SDS011;9799;48.214;16.388;2023-11-18T08:59:14;5.10;;;3.50;;
19329;SDS011;9799;48.214;16.388;2023-11-18T09:02:36;3.53;;;2.90;;
19329;SDS011;9799;48.214;16.388;2023-11-18T09:05:57;3.63;;;3.30;;
19329;SDS011;9799;48.214;16.388;2023-11-18T09:09:23;3.87;;;3.57;;
19329;SDS011;9799;48.214;16.388;2023-11-18T09:12:48;4.07;;;3.27;;
19329;SDS011;9799;48.214;16.388;2023-11-18T09:16:10;4.13;;;3.70;;
19329;SDS011;9799;48.214;16.388;2023-11-18T09:19:31;3.50;;;3.20;;
19329;SDS011;9799;48.214;16.388;2023-11-18T09:22:53;4.83;;;3.47;;
19329;SDS011;9799;48.214;16.388;2023-11-18T09:26:15;4.57;;;3.40;;
19329;SDS011;9799;48.214;16.388;2023-11-18T09:29:38;4.57;;;3.60;;
19329;SDS011;9799;48.214;16.388;2023-11-18T09:33:00;4.07;;;3.67;;
19329;SDS011;9799;48.214;16.388;2023-11-18T09:36:33;3.87;;;2.97;;
19329;SDS011;9799;48.214;16.388;2023-11-18T09:39:55;5.47;;;3.57;;
19329;SDS011;9799;48.214;16.388;2023-11-18T09:43:18;5.23;;;3.67;;
19329;SDS011;9799;48.214;16.388;2023-11-18T09:46:42;9.77;;;3.87;;
19329;SDS011;9799;48.214;16.388;2023-11-18T09:50:17;4.83;;;4.10;;
19329;SDS011;9799;48.214;16.388;2023-11-18T09:53:40;5.47;;;4.33;;
19329;SDS011;9799;48.214;16.388;2023-11-18T09:57:04;5.70;;;4.73;;
19329;SDS011;9799;48.214;16.388;2023-11-18T10:00:29;5.57;;;4.23;;
19329;SDS011;9799;48.214;16.388;2023-11-18T10:03:54;4.57;;;4.07;;
19329;SDS011;9799;48.214;16.388;2023-11-18T10:07:17;4.27;;;3.87;;
19329;SDS011;9799;48.214;16.388;2023-11-18T10:10:39;4.70;;;4.20;;
19329;SDS011;9799;48.214;16.388;2023-11-18T10:14:05;4.73;;;3.33;;
19329;SDS011;9799;48.214;16.388;2023-11-18T10:17:27;7.10;;;4.37;;
19329;SDS011;9799;48.214;16.388;2023-11-18T10:20:50;4.73;;;4.03;;
19329;SDS011;9799;48.214;16.388;2023-11-18T10:24:12;5.00;;;4.50;;
19329;SDS011;9799;48.214;16.388;2023-11-18T10:27:38;4.60;;;3.70;;
19329;SDS011;9799;48.214;16.388;2023-11-18T10:31:06;4.47;;;3.90;;
19329;SDS011;9799;48.214;16.388;2023-11-18T10:34:29;5.93;;;4.77;;
19329;SDS011;9799;48.214;16.388;2023-11-18T10:37:52;4.77;;;4.27;;
19329;SDS011;9799;48.214;16.388;2023-11-18T10:41:13;22.60;;;13.00;;
19329;SDS011;9799;48.214;16.388;2023-11-18T10:44:35;11.13;;;7.30;;
19329;SDS011;9799;48.214;16.388;2023-11-18T10:47:57;5.80;;;5.07;;
19329;SDS011;9799;48.214;16.388;2023-11-18T10:51:18;4.23;;;3.83;;
19329;SDS011;9799;48.214;16.388;2023-11-18T10:54:51;5.07;;;4.57;;
19329;SDS011;9799;48.214;16.388;2023-11-18T10:58:13;5.23;;;4.67;;
19329;SDS011;9799;48.214;16.388;2023-11-18T11:01:35;5.63;;;4.70;;
19329;SDS011;9799;48.214;16.388;2023-11-18T11:05:01;5.57;;;4.63;;
19329;SDS011;9799;48.214;16.388;2023-11-18T11:08:22;5.87;;;4.90;;
19329;SDS011;9799;48.214;16.388;2023-11-18T11:11:49;4.80;;;4.30;;
19329;SDS011;9799;48.214;16.388;2023-11-18T11:15:13;5.87;;;4.90;;
19329;SDS011;9799;48.214;16.388;2023-11-18T11:18:42;5.03;;;4.47;;
19329;SDS011;9799;48.214;16.388;2023-11-18T11:22:10;5.10;;;4.20;;
19329;SDS011;9799;48.214;16.388;2023-11-18T11:25:41;5.93;;;5.10;;
19329;SDS011;9799;48.214;16.388;2023-11-18T11:32:53;6.73;;;5.33;;
19329;SDS011;9799;48.214;16.388;2023-11-18T11:36:22;6.63;;;5.47;;
19329;SDS011;9799;48.214;16.388;2023-11-18T11:39:55;8.20;;;5.63;;
19329;SDS011;9799;48.214;16.388;2023-11-18T11:43:18;7.37;;;5.63;;
19329;SDS011;9799;48.214;16.388;2023-11-18T11:46:41;6.50;;;5.47;;
19329;SDS011;9799;48.214;16.388;2023-11-18T11:50:05;8.23;;;5.37;;
19329;SDS011;9799;48.214;16.388;2023-11-18T11:53:32;5.77;;;5.17;;
19329;SDS011;9799;48.214;16.388;2023-11-18T11:56:58;6.27;;;5.33;;
19329;SDS011;9799;48.214;16.388;2023-11-18T12:00:20;6.47;;;5.47;;
19329;SDS011;9799;48.214;16.388;2023-11-18T12:03:47;9.40;;;5.77;;
19329;SDS011;9799;48.214;16.388;2023-11-18T12:07:08;6.87;;;4.97;;
19329;SDS011;9799;48.214;16.388;2023-11-18T12:10:34;6.20;;;5.23;;
19329;SDS011;9799;48.214;16.388;2023-11-18T12:14:03;5.10;;;4.60;;
19329;SDS011;9799;48.214;16.388;2023-11-18T12:17:32;6.07;;;4.77;;
19329;SDS011;9799;48.214;16.388;2023-11-18T12:29:00;6.10;;;5.30;;
19329;SDS011;9799;48.214;16.388;2023-11-18T12:40:36;6.07;;;5.47;;
19329;SDS011;9799;48.214;16.388;2023-11-18T12:44:14;5.77;;;4.67;;
19329;SDS011;9799;48.214;16.388;2023-11-18T12:47:38;5.40;;;4.40;;
19329;SDS011;9799;48.214;16.388;2023-11-18T12:51:04;4.30;;;3.90;;
19329;SDS011;9799;48.214;16.388;2023-11-18T12:54:29;5.53;;;4.17;;
19329;SDS011;9799;48.214;16.388;2023-11-18T12:57:52;5.60;;;4.77;;
19329;SDS011;9799;48.214;16.388;2023-11-18T13:01:13;5.60;;;4.27;;
19329;SDS011;9799;48.214;16.388;2023-11-18T13:04:35;4.57;;;4.00;;
19329;SDS011;9799;48.214;16.388;2023-11-18T13:08:00;5.13;;;4.63;;
19329;SDS011;9799;48.214;16.388;2023-11-18T13:11:21;5.20;;;4.70;;
19329;SDS011;9799;48.214;16.388;2023-11-18T13:14:44;7.87;;;6.20;;
19329;SDS011;9799;48.214;16.388;2023-11-18T13:18:06;4.40;;;4.00;;
19329;SDS011;9799;48.214;16.388;2023-11-18T13:21:28;4.70;;;4.30;;
19329;SDS011;9799;48.214;16.388;2023-11-18T13:24:50;5.40;;;4.70;;
19329;SDS011;9799;48.214;16.388;2023-11-18T13:28:11;5.10;;;4.60;;
19329;SDS011;9799;48.214;16.388;2023-11-18T13:31:36;5.90;;;4.37;;
19329;SDS011;9799;48.214;16.388;2023-11-18T13:34:58;10.93;;;7.37;;
19329;SDS011;9799;48.214;16.388;2023-11-18T13:38:22;5.97;;;4.17;;
19329;SDS011;9799;48.214;16.388;2023-11-18T13:41:44;4.53;;;4.13;;
19329;SDS011;9799;48.214;16.388;2023-11-18T13:45:08;4.40;;;3.90;;
19329;SDS011;9799;48.214;16.388;2023-11-18T13:48:36;3.97;;;3.60;;
19329;SDS011;9799;48.214;16.388;2023-11-18T13:51:59;4.30;;;3.90;;
19329;SDS011;9799;48.214;16.388;2023-11-18T13:55:22;5.87;;;4.40;;
19329;SDS011;9799;48.214;16.388;2023-11-18T13:58:46;4.77;;;4.33;;
19329;SDS011;9799;48.214;16.388;2023-11-18T14:02:09;3.87;;;3.50;;
19329;SDS011;9799;48.214;16.388;2023-11-18T14:05:34;3.73;;;3.43;;
19329;SDS011;9799;48.214;16.388;2023-11-18T14:08:56;4.70;;;4.30;;
19329;SDS011;9799;48.214;16.388;2023-11-18T14:12:18;4.70;;;3.67;;
19329;SDS011;9799;48.214;16.388;2023-11-18T14:15:41;4.30;;;3.90;;
19329;SDS011;9799;48.214;16.388;2023-11-18T14:19:04;3.83;;;3.53;;
19329;SDS011;9799;48.214;16.388;2023-11-18T14:22:27;4.90;;;4.33;;
19329;SDS011;9799;48.214;16.388;2023-11-18T14:25:49;4.30;;;3.90;;
19329;SDS011;9799;48.214;16.388;2023-11-18T14:29:10;4.10;;;3.70;;
19329;SDS011;9799;48.214;16.388;2023-11-18T14:32:31;3.97;;;3.60;;
19329;SDS011;9799;48.214;16.388;2023-11-18T14:35:53;4.30;;;3.73;;
19329;SDS011;9799;48.214;16.388;2023-11-18T14:39:16;4.63;;;4.17;;
19329;SDS011;9799;48.214;16.388;2023-11-18T14:42:42;4.60;;;3.47;;
19329;SDS011;9799;48.214;16.388;2023-11-18T14:46:03;4.03;;;3.70;;
19329;SDS011;9799;48.214;16.388;2023-11-18T14:49:25;4.93;;;3.80;;
19329;SDS011;9799;48.214;16.388;2023-11-18T14:52:46;3.87;;;3.47;;
19329;SDS011;9799;48.214;16.388;2023-11-18T14:56:11;4.27;;;3.30;;
19329;SDS011;9799;48.214;16.388;2023-11-18T14:59:34;4.67;;;3.87;;
19329;SDS011;9799;48.214;16.388;2023-11-18T15:02:56;3.60;;;3.30;;
19329;SDS011;9799;48.214;16.388;2023-11-18T15:06:23;3.77;;;3.47;;
19329;SDS011;9799;48.214;16.388;2023-11-18T15:09:45;4.70;;;3.40;;
19329;SDS011;9799;48.214;16.388;2023-11-18T15:13:08;4.10;;;3.70;;
19329;SDS011;9799;48.214;16.388;2023-11-18T15:16:34;5.07;;;3.10;;
19329;SDS011;9799;48.214;16.388;2023-11-18T15:19:55;3.90;;;3.50;;
19329;SDS011;9799;48.214;16.388;2023-11-18T15:23:16;4.13;;;3.33;;
19329;SDS011;9799;48.214;16.388;2023-11-18T15:26:40;4.00;;;3.60;;
19329;SDS011;9799;48.214;16.388;2023-11-18T15:30:04;4.80;;;3.80;;
19329;SDS011;9799;48.214;16.388;2023-11-18T15:33:29;3.63;;;3.33;;
19329;SDS011;9799;48.214;16.388;2023-11-18T15:36:50;5.10;;;3.50;;
19329;SDS011;9799;48.214;16.388;2023-11-18T15:40:12;4.17;;;3.77;;
19329;SDS011;9799;48.214;16.388;2023-11-18T15:43:38;4.30;;;3.87;;
19329;SDS011;9799;48.214;16.388;2023-11-18T15:47:01;3.60;;;3.23;;
19329;SDS011;9799;48.214;16.388;2023-11-18T15:50:22;3.50;;;3.20;;
19329;SDS011;9799;48.214;16.388;2023-11-18T15:53:44;5.20;;;4.60;;
19329;SDS011;9799;48.214;16.388;2023-11-18T15:57:05;5.17;;;4.23;;
19329;SDS011;9799;48.214;16.388;2023-11-18T16:00:26;3.17;;;2.87;;
19329;SDS011;9799;48.214;16.388;2023-11-18T16:03:49;3.87;;;3.57;;
19329;SDS011;9799;48.214;16.388;2023-11-18T16:07:10;5.70;;;4.20;;
19329;SDS011;9799;48.214;16.388;2023-11-18T16:10:31;4.87;;;4.23;;
19329;SDS011;9799;48.214;16.388;2023-11-18T16:13:52;3.73;;;3.37;;
19329;SDS011;9799;48.214;16.388;2023-11-18T16:17:14;5.53;;;3.67;;
19329;SDS011;9799;48.214;16.388;2023-11-18T16:20:37;4.73;;;4.23;;
19329;SDS011;9799;48.214;16.388;2023-11-18T16:23:59;4.03;;;3.40;;
19329;SDS011;9799;48.214;16.388;2023-11-18T16:27:20;3.83;;;3.43;;
19329;SDS011;9799;48.214;16.388;2023-11-18T16:30:41;4.47;;;3.80;;
19329;SDS011;9799;48.214;16.388;2023-11-18T16:34:03;4.30;;;3.90;;
19329;SDS011;9799;48.214;16.388;2023-11-18T16:37:27;3.50;;;3.20;;
19329;SDS011;9799;48.214;16.388;2023-11-18T16:40:48;4.13;;;3.43;;
19329;SDS011;9799;48.214;16.388;2023-11-18T16:44:09;4.07;;;3.67;;
19329;SDS011;9799;48.214;16.388;2023-11-18T16:47:30;3.40;;;3.03;;
19329;SDS011;9799;48.214;16.388;2023-11-18T16:50:52;3.03;;;2.73;;
19329;SDS011;9799;48.214;16.388;2023-11-18T16:54:14;3.83;;;3.50;;
19329;SDS011;9799;48.214;16.388;2023-11-18T16:57:38;9.23;;;8.30;;
19329;SDS011;9799;48.214;16.388;2023-11-18T17:01:00;4.80;;;4.30;;
19329;SDS011;9799;48.214;16.388;2023-11-18T17:04:24;4.07;;;3.67;;
19329;SDS011;9799;48.214;16.388;2023-11-18T17:07:45;4.00;;;3.07;;
19329;SDS011;9799;48.214;16.388;2023-11-18T17:11:09;3.00;;;2.70;;
19329;SDS011;9799;48.214;16.388;2023-11-18T17:14:30;3.73;;;2.97;;
19329;SDS011;9799;48.214;16.388;2023-11-18T17:17:51;3.57;;;3.13;;
19329;SDS011;9799;48.214;16.388;2023-11-18T17:21:19;4.47;;;3.47;;
19329;SDS011;9799;48.214;16.388;2023-11-18T17:24:41;4.40;;;4.00;;
19329;SDS011;9799;48.214;16.388;2023-11-18T17:28:03;4.47;;;4.07;;
19329;SDS011;9799;48.214;16.388;2023-11-18T17:31:25;4.30;;;3.73;;
19329;SDS011;9799;48.214;16.388;2023-11-18T17:34:47;5.80;;;4.50;;
19329;SDS011;9799;48.214;16.388;2023-11-18T17:38:08;4.53;;;4.13;;
19329;SDS011;9799;48.214;16.388;2023-11-18T17:41:29;4.70;;;4.10;;
19329;SDS011;9799;48.214;16.388;2023-11-18T17:44:52;5.20;;;4.47;;
19329;SDS011;9799;48.214;16.388;2023-11-18T17:48:13;5.47;;;4.60;;
19329;SDS011;9799;48.214;16.388;2023-11-18T17:51:34;5.20;;;4.70;;
19329;SDS011;9799;48.214;16.388;2023-11-18T17:54:55;4.67;;;4.27;;
19329;SDS011;9799;48.214;16.388;2023-11-18T17:58:17;6.47;;;4.33;;
19329;SDS011;9799;48.214;16.388;2023-11-18T18:01:39;6.90;;;6.17;;
19329;SDS011;9799;48.214;16.388;2023-11-18T18:05:00;9.87;;;6.37;;
19329;SDS011;9799;48.214;16.388;2023-11-18T18:08:23;6.07;;;5.40;;
19329;SDS011;9799;48.214;16.388;2023-11-18T18:11:45;6.50;;;4.63;;
19329;SDS011;9799;48.214;16.388;2023-11-18T18:15:06;6.87;;;5.97;;
19329;SDS011;9799;48.214;16.388;2023-11-18T18:18:29;6.47;;;5.70;;
19329;SDS011;9799;48.214;16.388;2023-11-18T18:21:50;6.80;;;6.20;;
19329;SDS011;9799;48.214;16.388;2023-11-18T18:25:12;7.20;;;6.33;;
19329;SDS011;9799;48.214;16.388;2023-11-18T18:28:33;7.73;;;6.80;;
19329;SDS011;9799;48.214;16.388;2023-11-18T18:31:55;7.40;;;6.23;;
19329;SDS011;9799;48.214;16.388;2023-11-18T18:35:17;7.00;;;6.30;;
19329;SDS011;9799;48.214;16.388;2023-11-18T18:38:38;7.53;;;6.80;;
19329;SDS011;9799;48.214;16.388;2023-11-18T18:41:59;9.50;;;7.57;;
19329;SDS011;9799;48.214;16.388;2023-11-18T18:45:21;8.20;;;6.93;;
19329;SDS011;9799;48.214;16.388;2023-11-18T18:48:42;9.00;;;7.87;;
19329;SDS011;9799;48.214;16.388;2023-11-18T18:52:05;8.87;;;7.87;;
19329;SDS011;9799;48.214;16.388;2023-11-18T18:55:26;9.47;;;8.10;;
19329;SDS011;9799;48.214;16.388;2023-11-18T18:58:47;10.60;;;8.90;;
19329;SDS011;9799;48.214;16.388;2023-11-18T19:02:08;9.53;;;8.20;;
19329;SDS011;9799;48.214;16.388;2023-11-18T19:05:31;8.73;;;7.53;;
19329;SDS011;9799;48.214;16.388;2023-11-18T19:08:53;11.37;;;7.87;;
19329;SDS011;9799;48.214;16.388;2023-11-18T19:12:14;11.10;;;8.77;;
19329;SDS011;9799;48.214;16.388;2023-11-18T19:15:36;10.67;;;8.40;;
19329;SDS011;9799;48.214;16.388;2023-11-18T19:18:57;13.20;;;9.77;;
19329;SDS011;9799;48.214;16.388;2023-11-18T19:22:18;12.50;;;9.63;;
19329;SDS011;9799;48.214;16.388;2023-11-18T19:25:41;15.73;;;9.70;;
19329;SDS011;9799;48.214;16.388;2023-11-18T19:29:02;12.93;;;9.90;;
19329;SDS011;9799;48.214;16.388;2023-11-18T19:32:25;11.73;;;9.53;;
19329;SDS011;9799;48.214;16.388;2023-11-18T19:35:46;17.30;;;10.20;;
19329;SDS011;9799;48.214;16.388;2023-11-18T19:39:08;10.17;;;8.50;;
19329;SDS011;9799;48.214;16.388;2023-11-18T19:42:30;10.73;;;8.63;;
19329;SDS011;9799;48.214;16.388;2023-11-18T19:45:52;15.57;;;10.10;;
19329;SDS011;9799;48.214;16.388;2023-11-18T19:49:13;13.77;;;9.67;;
19329;SDS011;9799;48.214;16.388;2023-11-18T19:52:34;10.77;;;8.60;;
19329;SDS011;9799;48.214;16.388;2023-11-18T19:55:55;9.47;;;8.33;;
19329;SDS011;9799;48.214;16.388;2023-11-18T19:59:18;52.43;;;38.87;;
19329;SDS011;9799;48.214;16.388;2023-11-18T20:02:39;16.07;;;13.40;;
19329;SDS011;9799;48.214;16.388;2023-11-18T20:06:01;14.37;;;11.37;;
19329;SDS011;9799;48.214;16.388;2023-11-18T20:09:22;10.90;;;8.97;;
19329;SDS011;9799;48.214;16.388;2023-11-18T20:12:45;13.83;;;11.27;;
19329;SDS011;9799;48.214;16.388;2023-11-18T20:16:08;10.03;;;8.90;;
19329;SDS011;9799;48.214;16.388;2023-11-18T20:19:31;10.77;;;8.97;;
19329;SDS011;9799;48.214;16.388;2023-11-18T20:22:54;11.87;;;9.40;;
19329;SDS011;9799;48.214;16.388;2023-11-18T20:26:16;11.87;;;9.77;;
19329;SDS011;9799;48.214;16.388;2023-11-18T20:29:37;12.97;;;9.97;;
19329;SDS011;9799;48.214;16.388;2023-11-18T20:33:01;10.80;;;9.03;;
19329;SDS011;9799;48.214;16.388;2023-11-18T20:36:22;11.83;;;9.23;;
19329;SDS011;9799;48.214;16.388;2023-11-18T20:39:43;11.87;;;9.03;;